createdAt,value
2022-10-15T00:00:52.961Z,101696.50
2022-10-15T00:05:50.264Z,101713.53
2022-10-15T00:10:47.273Z,101704.72
2022-10-15T00:15:43.917Z,101712.38
2022-10-15T00:20:41.321Z,101717.66
2022-10-15T00:25:41.725Z,101717.91
2022-10-15T00:30:38.422Z,101710.13
2022-10-15T00:35:35.145Z,101715.75
2022-10-15T00:40:31.900Z,101705.84
2022-10-15T00:45:29.228Z,101707.13
2022-10-15T00:50:27.504Z,101704.78
2022-10-15T00:55:26.826Z,101702.94
2022-10-15T01:00:23.521Z,101699.09
2022-10-15T01:05:21.938Z,101706.34
2022-10-15T01:10:20.665Z,101699.06
2022-10-15T01:15:20.722Z,101695.50
2022-10-15T01:20:44.040Z,101706.72
2022-10-15T01:25:48.472Z,101708.38
2022-10-15T01:30:52.936Z,101701.50
2022-10-15T01:35:54.198Z,101690.34
2022-10-15T01:40:55.513Z,101695.50
2022-10-15T01:45:56.230Z,101700.44
2022-10-15T01:51:06.037Z,101705.66
2022-10-15T01:56:07.330Z,101696.38
2022-10-15T02:01:05.493Z,101705.41
2022-10-15T02:06:09.217Z,101700.66
2022-10-15T02:11:08.814Z,101711.09
2022-10-15T02:16:12.351Z,101706.44
2022-10-15T02:21:11.666Z,101711.19
2022-10-15T02:26:10.760Z,101712.28
2022-10-15T02:31:10.677Z,101693.63
2022-10-15T02:36:26.306Z,101709.13
2022-10-15T02:41:23.080Z,101717.81
2022-10-15T02:46:20.909Z,101719.03
2022-10-15T02:51:20.541Z,101717.41
2022-10-15T02:56:17.415Z,101717.91
2022-10-15T03:01:17.402Z,101708.34
2022-10-15T03:06:15.563Z,101707.00
2022-10-15T03:11:13.039Z,101711.81
2022-10-15T03:16:10.529Z,101703.47
2022-10-15T03:21:10.051Z,101710.94
2022-10-15T03:26:08.430Z,101710.84
2022-10-15T03:31:05.601Z,101717.22
2022-10-15T03:36:03.632Z,101717.72
2022-10-15T03:41:04.518Z,101718.88
2022-10-15T03:46:07.592Z,101717.38
2022-10-15T03:51:08.827Z,101716.72
2022-10-15T03:56:06.739Z,101719.06
2022-10-15T04:01:09.419Z,101729.25
2022-10-15T04:06:06.870Z,101723.13
2022-10-15T04:11:06.901Z,101726.19
2022-10-15T04:16:04.336Z,101731.91
2022-10-15T04:21:06.224Z,101727.50
2022-10-15T04:26:04.118Z,101726.31
2022-10-15T04:31:04.007Z,101726.16
2022-10-15T04:36:06.286Z,101732.84
2022-10-15T04:41:30.129Z,101732.19
2022-10-15T04:46:33.514Z,101739.31
2022-10-15T04:51:39.456Z,101741.47
2022-10-15T04:56:43.909Z,101744.25
2022-10-15T05:01:40.687Z,101742.19
2022-10-15T05:06:40.155Z,101747.31
2022-10-15T05:11:49.764Z,101742.94
2022-10-15T05:16:47.967Z,101750.44
2022-10-15T05:21:46.205Z,101750.06
2022-10-15T05:26:52.741Z,101755.97
2022-10-15T05:31:51.541Z,101747.22
2022-10-15T05:36:55.805Z,101767.69
2022-10-15T05:41:53.159Z,101763.41
2022-10-15T05:46:56.248Z,101769.59
2022-10-15T05:57:12.495Z,101770.25
2022-10-15T06:02:10.055Z,101780.22
2022-10-15T06:07:07.493Z,101785.44
2022-10-15T06:12:04.222Z,101789.06
2022-10-15T06:17:01.048Z,101796.34
2022-10-15T06:21:57.757Z,101797.28
2022-10-15T06:26:55.150Z,101798.84
2022-10-15T06:31:52.273Z,101801.22
2022-10-15T06:36:49.000Z,101806.28
2022-10-15T06:41:45.865Z,101807.25
2022-10-15T06:46:44.773Z,101814.66
2022-10-15T06:51:49.009Z,101816.00
2022-10-15T06:56:45.891Z,101810.53
2022-10-15T07:01:43.249Z,101806.22
2022-10-15T07:06:41.108Z,101813.63
2022-10-15T07:11:37.978Z,101805.25
2022-10-15T07:16:36.981Z,101804.50
2022-10-15T07:21:34.532Z,101811.91
2022-10-15T07:26:33.168Z,101808.28
2022-10-15T07:31:32.119Z,101811.44
2022-10-15T07:36:30.380Z,101793.22
2022-10-15T07:41:27.830Z,101807.31
2022-10-15T07:46:24.595Z,101807.63
2022-10-15T07:51:24.922Z,101800.69
2022-10-15T07:56:21.693Z,101809.44
2022-10-15T08:01:20.685Z,101819.44
2022-10-15T08:06:18.350Z,101819.81
2022-10-15T08:11:17.409Z,101812.59
2022-10-15T08:16:14.797Z,101822.78
2022-10-15T08:21:19.069Z,101820.78
2022-10-15T08:26:15.926Z,101819.38
2022-10-15T08:31:13.303Z,101818.03
2022-10-15T08:36:10.152Z,101815.78
2022-10-15T08:41:17.523Z,101826.28
2022-10-15T08:51:19.740Z,101830.25
2022-10-15T08:56:20.694Z,101830.50
2022-10-15T09:01:21.930Z,101831.59
2022-10-15T09:06:21.625Z,101840.63
2022-10-15T09:11:30.150Z,101834.78
2022-10-15T09:16:30.146Z,101834.28
2022-10-15T09:21:26.951Z,101815.44
2022-10-15T09:26:28.138Z,101825.03
2022-10-15T09:31:28.055Z,101819.53
2022-10-15T09:36:33.525Z,101813.06
2022-10-15T09:41:34.868Z,101810.97
2022-10-15T09:46:31.723Z,101812.25
2022-10-15T09:51:33.097Z,101809.69
2022-10-15T09:56:35.393Z,101811.13
2022-10-15T10:01:33.563Z,101810.56
2022-10-15T10:06:30.429Z,101812.13
2022-10-15T10:11:27.543Z,101796.22
2022-10-15T10:16:24.804Z,101794.28
2022-10-15T10:21:26.068Z,101797.75
2022-10-15T10:26:23.022Z,101791.72
2022-10-15T10:31:28.915Z,101795.03
2022-10-15T10:36:28.073Z,101785.69
2022-10-15T10:41:45.876Z,101785.81
2022-10-15T10:46:42.589Z,101777.94
2022-10-15T10:51:48.196Z,101782.53
2022-10-15T10:56:45.239Z,101767.94
2022-10-15T11:01:45.345Z,101759.94
2022-10-15T11:06:57.540Z,101762.53
2022-10-15T11:12:01.859Z,101751.94
2022-10-15T11:17:01.519Z,101741.66
2022-10-15T11:22:08.506Z,101736.75
2022-10-15T11:27:11.884Z,101750.53
2022-10-15T11:32:47.884Z,101728.44
2022-10-15T11:37:56.131Z,101716.63
2022-10-15T11:42:56.008Z,101731.78
2022-10-15T11:47:54.949Z,101726.38
2022-10-15T11:53:16.055Z,101699.75
2022-10-15T11:58:15.850Z,101722.13
2022-10-15T12:03:15.067Z,101722.53
2022-10-15T12:08:13.926Z,101712.22
2022-10-15T12:13:19.113Z,101712.72
2022-10-15T12:18:20.374Z,101704.16
2022-10-15T12:23:24.704Z,101721.25
2022-10-15T12:28:23.220Z,101722.78
2022-10-15T12:33:33.091Z,101725.34
2022-10-15T12:38:31.923Z,101734.41
2022-10-15T12:43:29.725Z,101727.47
2022-10-15T12:48:31.409Z,101728.28
2022-10-15T12:58:38.218Z,101724.66
2022-10-15T13:03:37.032Z,101724.13
2022-10-15T13:08:36.757Z,101727.44
2022-10-15T13:13:39.593Z,101717.84
2022-10-15T13:18:36.712Z,101737.66
2022-10-15T13:23:36.947Z,101735.19
2022-10-15T13:28:38.102Z,101731.75
2022-10-15T13:33:39.604Z,101743.69
2022-10-15T13:38:38.737Z,101736.72
2022-10-15T13:43:35.733Z,101738.16
2022-10-15T13:48:33.029Z,101741.47
2022-10-15T13:53:31.233Z,101739.69
2022-10-15T13:58:44.367Z,101737.09
2022-10-15T14:03:45.927Z,101731.75
2022-10-15T14:08:42.576Z,101734.00
2022-10-15T14:13:44.674Z,101731.06
2022-10-15T14:18:48.119Z,101729.22
2022-10-15T14:23:47.812Z,101723.63
2022-10-15T14:28:50.666Z,101723.22
2022-10-15T14:33:47.799Z,101718.03
2022-10-15T14:38:46.905Z,101712.75
2022-10-15T14:43:43.441Z,101711.75
2022-10-15T14:48:42.745Z,101719.91
2022-10-15T14:53:44.248Z,101718.47
2022-10-15T14:58:46.843Z,101706.81
2022-10-15T15:03:47.113Z,101715.34
2022-10-15T15:08:43.907Z,101720.94
2022-10-15T15:13:41.925Z,101714.53
2022-10-15T15:18:43.285Z,101709.91
2022-10-15T15:23:41.074Z,101718.31
2022-10-15T15:28:37.959Z,101720.72
2022-10-15T15:33:37.480Z,101717.84
2022-10-15T15:38:37.069Z,101722.59
2022-10-15T15:43:34.766Z,101727.56
2022-10-15T15:48:33.147Z,101723.22
2022-10-15T15:53:30.063Z,101730.97
2022-10-15T15:58:26.824Z,101720.50
2022-10-15T16:03:24.542Z,101745.19
2022-10-15T16:08:26.867Z,101743.69
2022-10-15T16:13:25.838Z,101755.28
2022-10-15T16:18:28.892Z,101754.34
2022-10-15T16:23:29.266Z,101762.75
2022-10-15T16:28:44.177Z,101768.22
2022-10-15T16:33:43.877Z,101770.16
2022-10-15T16:38:41.940Z,101771.84
2022-10-15T16:43:49.551Z,101776.81
2022-10-15T16:48:51.356Z,101782.38
2022-10-15T16:53:52.172Z,101790.41
2022-10-15T16:58:49.329Z,101799.44
2022-10-15T17:03:46.302Z,101805.63
2022-10-15T17:08:45.529Z,101816.16
2022-10-15T17:13:45.725Z,101820.81
2022-10-15T17:18:43.083Z,101816.00
2022-10-15T17:23:40.445Z,101822.81
2022-10-15T17:28:37.421Z,101820.06
2022-10-15T17:33:36.060Z,101824.78
2022-10-15T17:38:33.059Z,101820.66
2022-10-15T17:43:30.062Z,101818.66
2022-10-15T17:48:27.381Z,101825.28
2022-10-15T17:53:24.959Z,101827.88
2022-10-15T17:58:27.279Z,101834.56
2022-10-15T18:03:24.691Z,101845.13
2022-10-15T18:08:26.132Z,101827.91
2022-10-15T18:13:48.662Z,101849.16
2022-10-15T18:18:47.710Z,101855.78
2022-10-15T18:23:46.099Z,101857.63
2022-10-15T18:28:44.420Z,101854.34
2022-10-15T18:33:44.052Z,101860.81
2022-10-15T18:38:44.534Z,101862.09
2022-10-15T18:43:41.552Z,101866.16
2022-10-15T18:48:39.251Z,101866.13
2022-10-15T18:53:36.078Z,101875.19
2022-10-15T18:58:33.128Z,101886.25
2022-10-15T19:03:30.127Z,101886.88
2022-10-15T19:08:30.638Z,101895.63
2022-10-15T19:13:27.541Z,101901.28
2022-10-15T19:19:00.828Z,101892.75
2022-10-15T19:24:07.880Z,101896.00
2022-10-15T19:29:05.082Z,101904.41
2022-10-15T19:34:06.083Z,101911.38
2022-10-15T19:39:04.484Z,101902.81
2022-10-15T19:44:03.189Z,101905.75
2022-10-15T19:49:02.462Z,101902.34
2022-10-15T19:54:02.787Z,101906.38
2022-10-15T19:59:04.066Z,101915.38
2022-10-15T20:04:05.887Z,101916.91
2022-10-15T20:09:11.999Z,101920.44
2022-10-15T20:14:08.752Z,101921.25
2022-10-15T20:19:08.332Z,101924.03
2022-10-15T20:24:09.339Z,101926.13
2022-10-15T20:29:10.172Z,101932.56
2022-10-15T20:34:07.365Z,101928.25
2022-10-15T20:39:04.279Z,101929.16
2022-10-15T20:44:00.971Z,101926.31
2022-10-15T20:48:58.881Z,101925.25
2022-10-15T20:53:57.593Z,101931.94
2022-10-15T20:58:54.285Z,101926.78
2022-10-15T21:03:51.191Z,101925.91
2022-10-15T21:08:47.903Z,101933.94
2022-10-15T21:13:46.284Z,101938.63
2022-10-15T21:18:43.053Z,101933.72
2022-10-15T21:23:41.084Z,101936.88
2022-10-15T21:28:38.170Z,101937.28
2022-10-15T21:33:35.842Z,101942.00
2022-10-15T21:38:41.731Z,101953.22
2022-10-15T21:43:38.444Z,101937.53
2022-10-15T21:48:36.500Z,101944.56
2022-10-15T21:53:33.126Z,101940.50
2022-10-15T21:58:29.902Z,101935.34
2022-10-15T22:03:26.469Z,101934.72
2022-10-15T22:08:28.493Z,101933.69
2022-10-15T22:13:25.116Z,101949.00
2022-10-15T22:18:21.976Z,101952.88
2022-10-15T22:23:19.007Z,101946.56
2022-10-15T22:28:19.993Z,101939.72
2022-10-15T22:33:16.825Z,101947.75
2022-10-15T22:38:13.837Z,101958.28
2022-10-15T22:43:10.540Z,101956.56
2022-10-15T22:48:07.853Z,101974.81
2022-10-15T22:53:04.446Z,101978.88
2022-10-15T22:58:00.911Z,101979.91
2022-10-15T23:02:57.925Z,101984.69
2022-10-15T23:07:55.504Z,101986.56
2022-10-15T23:12:52.067Z,101991.19
2022-10-15T23:17:49.050Z,101987.81
2022-10-15T23:22:45.594Z,101992.38
2022-10-15T23:27:45.118Z,101990.44
2022-10-15T23:32:41.662Z,101987.00
2022-10-15T23:37:39.739Z,102002.78
2022-10-15T23:42:36.393Z,102007.34
2022-10-15T23:47:33.647Z,102009.88
2022-10-15T23:52:31.230Z,102026.53
2022-10-15T23:57:30.345Z,102025.03
